createdAt,value
2022-12-23T00:01:28.318Z,93.60
2022-12-23T00:03:57.846Z,93.51
2022-12-23T00:06:24.655Z,93.47
2022-12-23T00:08:58.969Z,93.87
2022-12-23T00:11:27.265Z,93.50
2022-12-23T00:14:20.091Z,93.75
2022-12-23T00:16:49.603Z,93.50
2022-12-23T00:19:16.328Z,93.73
2022-12-23T00:21:43.009Z,93.66
2022-12-23T00:24:11.482Z,93.36
2022-12-23T00:26:39.439Z,93.51
2022-12-23T00:29:06.148Z,93.35
2022-12-23T00:31:32.945Z,93.73
2022-12-23T00:34:01.015Z,93.43
2022-12-23T00:36:29.549Z,93.52
2022-12-23T00:39:15.888Z,93.34
2022-12-23T00:42:00.880Z,93.50
2022-12-23T00:44:27.707Z,93.30
2022-12-23T00:46:54.394Z,93.74
2022-12-23T00:49:40.912Z,93.46
2022-12-23T00:52:10.883Z,93.24
2022-12-23T00:54:37.785Z,93.52
2022-12-23T00:57:04.767Z,93.71
2022-12-23T00:59:31.549Z,93.74
2022-12-23T01:02:21.802Z,93.11
2022-12-23T01:05:08.385Z,93.57
2022-12-23T01:07:35.085Z,93.24
2022-12-23T01:10:01.751Z,93.42
2022-12-23T01:12:28.476Z,93.61
2022-12-23T01:14:55.143Z,93.44
2022-12-23T01:17:22.079Z,93.35
2022-12-23T01:19:51.365Z,93.74
2022-12-23T01:22:18.049Z,93.57
2022-12-23T01:24:44.830Z,93.60
2022-12-23T01:27:11.528Z,93.43
2022-12-23T01:29:38.209Z,93.67
2022-12-23T01:32:05.390Z,93.74
2022-12-23T01:34:36.632Z,93.64
2022-12-23T01:37:05.450Z,93.84
2022-12-23T01:39:32.171Z,94.02
2022-12-23T01:42:17.327Z,93.82
2022-12-23T01:45:06.076Z,93.48
2022-12-23T01:47:37.665Z,93.64
2022-12-23T01:50:08.214Z,93.82
2022-12-23T01:52:41.777Z,93.41
2022-12-23T01:55:19.106Z,93.52
2022-12-23T01:57:46.941Z,93.66
2022-12-23T02:00:33.781Z,93.97
2022-12-23T02:03:18.817Z,93.33
2022-12-23T02:05:46.913Z,93.35
2022-12-23T02:08:35.381Z,93.60
2022-12-23T02:11:17.505Z,93.69
2022-12-23T02:14:10.115Z,93.55
2022-12-23T02:16:44.816Z,93.62
2022-12-23T02:19:17.787Z,93.57
2022-12-23T02:22:09.460Z,93.37
2022-12-23T02:25:01.193Z,93.37
2022-12-23T02:27:31.855Z,93.94
2022-12-23T02:30:24.068Z,93.52
2022-12-23T02:33:09.326Z,93.66
2022-12-23T02:35:44.660Z,93.55
2022-12-23T02:38:15.841Z,93.66
2022-12-23T02:40:53.598Z,93.64
2022-12-23T02:43:29.175Z,93.44
2022-12-23T02:46:04.976Z,93.56
2022-12-23T02:48:36.974Z,93.72
2022-12-23T02:51:06.369Z,93.82
2022-12-23T02:53:37.348Z,93.55
2022-12-23T02:56:08.041Z,93.68
2022-12-23T02:58:39.853Z,93.52
2022-12-23T03:01:11.028Z,93.71
2022-12-23T03:03:38.660Z,93.73
2022-12-23T03:06:15.535Z,93.51
2022-12-23T03:08:44.483Z,93.77
2022-12-23T03:11:13.693Z,93.51
2022-12-23T03:13:59.934Z,93.65
2022-12-23T03:16:39.095Z,93.72
2022-12-23T03:19:15.430Z,93.75
2022-12-23T03:21:47.070Z,93.54
2022-12-23T03:24:17.908Z,93.39
2022-12-23T03:26:51.888Z,93.65
2022-12-23T03:29:25.404Z,93.40
2022-12-23T03:31:55.800Z,93.34
2022-12-23T03:34:26.325Z,93.35
2022-12-23T03:36:57.249Z,93.58
2022-12-23T03:39:29.493Z,93.35
2022-12-23T03:42:00.585Z,93.40
2022-12-23T03:44:31.969Z,93.69
2022-12-23T03:47:05.253Z,93.57
2022-12-23T03:49:35.956Z,93.76
2022-12-23T03:52:07.546Z,93.54
2022-12-23T03:54:37.096Z,93.63
2022-12-23T03:57:06.669Z,93.66
2022-12-23T03:59:36.299Z,93.52
2022-12-23T04:02:08.811Z,93.34
2022-12-23T04:04:57.751Z,93.47
2022-12-23T04:07:30.167Z,93.58
2022-12-23T04:09:58.133Z,93.49
2022-12-23T04:12:26.649Z,93.25
2022-12-23T04:14:53.921Z,93.37
2022-12-23T04:17:22.143Z,93.39
2022-12-23T04:19:48.901Z,93.32
2022-12-23T04:22:16.418Z,93.70
2022-12-23T04:24:44.276Z,93.52
2022-12-23T04:27:13.494Z,93.45
2022-12-23T04:29:40.207Z,93.61
2022-12-23T04:32:07.642Z,93.51
2022-12-23T04:34:35.930Z,93.49
2022-12-23T04:37:02.627Z,93.40
2022-12-23T04:39:29.391Z,93.68
2022-12-23T04:41:56.105Z,93.53
2022-12-23T04:44:22.894Z,93.26
2022-12-23T04:46:49.625Z,93.26
2022-12-23T04:49:16.436Z,93.43
2022-12-23T04:51:44.486Z,93.63
2022-12-23T04:54:11.121Z,93.52
2022-12-23T04:56:37.757Z,93.64
2022-12-23T04:59:04.480Z,93.52
2022-12-23T05:01:31.220Z,93.49
2022-12-23T05:03:58.040Z,93.25
2022-12-23T05:06:24.846Z,93.03
2022-12-23T05:08:52.964Z,93.25
2022-12-23T05:11:19.660Z,93.43
2022-12-23T05:13:46.341Z,93.07
2022-12-23T05:16:13.127Z,93.13
2022-12-23T05:18:39.831Z,93.50
2022-12-23T05:21:06.484Z,93.14
2022-12-23T05:23:33.337Z,93.37
2022-12-23T05:26:01.473Z,93.25
2022-12-23T05:28:28.164Z,93.21
2022-12-23T05:30:59.451Z,92.96
2022-12-23T05:33:26.281Z,93.22
2022-12-23T05:35:53.107Z,93.12
2022-12-23T05:38:20.202Z,92.85
2022-12-23T05:40:47.114Z,93.29
2022-12-23T05:43:15.509Z,92.93
2022-12-23T05:45:42.291Z,93.03
2022-12-23T05:48:09.040Z,93.11
2022-12-23T05:50:35.735Z,93.02
2022-12-23T05:53:02.498Z,92.96
2022-12-23T05:55:29.162Z,93.13
2022-12-23T05:57:56.185Z,93.29
2022-12-23T06:00:24.581Z,93.04
2022-12-23T06:02:53.749Z,93.33
2022-12-23T06:05:21.154Z,93.04
2022-12-23T06:07:47.858Z,93.04
2022-12-23T06:10:14.590Z,93.23
2022-12-23T06:12:41.425Z,93.23
2022-12-23T06:15:08.913Z,93.02
2022-12-23T06:17:37.463Z,93.32
2022-12-23T06:20:05.335Z,93.27
2022-12-23T06:22:32.086Z,93.08
2022-12-23T06:24:58.842Z,93.28
2022-12-23T06:27:25.551Z,92.98
2022-12-23T06:29:52.440Z,93.01
2022-12-23T06:32:19.102Z,92.95
2022-12-23T06:34:47.659Z,93.14
2022-12-23T06:37:14.458Z,92.73
2022-12-23T06:39:41.099Z,92.68
2022-12-23T06:42:07.748Z,92.87
2022-12-23T06:44:34.372Z,92.91
2022-12-23T06:47:01.094Z,93.11
2022-12-23T06:49:27.861Z,92.88
2022-12-23T06:51:55.948Z,92.93
2022-12-23T06:54:22.565Z,92.74
2022-12-23T06:56:49.301Z,92.90
2022-12-23T06:59:16.002Z,92.70
2022-12-23T07:01:42.912Z,93.01
2022-12-23T07:04:10.357Z,93.04
2022-12-23T07:06:37.157Z,92.62
2022-12-23T07:09:06.230Z,92.79
2022-12-23T07:11:32.950Z,92.66
2022-12-23T07:14:00.433Z,92.68
2022-12-23T07:16:27.282Z,92.63
2022-12-23T07:18:54.092Z,92.92
2022-12-23T07:21:28.584Z,92.72
2022-12-23T07:23:56.364Z,92.71
2022-12-23T07:26:24.582Z,92.58
2022-12-23T07:28:51.355Z,92.68
2022-12-23T07:31:18.007Z,92.85
2022-12-23T07:33:50.974Z,92.63
2022-12-23T07:36:17.858Z,92.69
2022-12-23T07:38:44.576Z,92.30
2022-12-23T07:41:11.216Z,92.61
2022-12-23T07:43:39.320Z,92.34
2022-12-23T07:46:07.292Z,92.53
2022-12-23T07:48:34.018Z,92.62
2022-12-23T07:51:01.273Z,92.34
2022-12-23T07:53:27.993Z,92.49
2022-12-23T07:55:56.893Z,92.28
2022-12-23T07:58:24.063Z,92.17
2022-12-23T08:00:59.490Z,92.45
2022-12-23T08:03:26.334Z,92.24
2022-12-23T08:06:00.675Z,92.50
2022-12-23T08:08:27.314Z,92.44
2022-12-23T08:10:58.321Z,92.11
2022-12-23T08:13:25.116Z,92.51
2022-12-23T08:16:48.346Z,92.20
2022-12-23T08:19:16.766Z,92.14
2022-12-23T08:21:43.538Z,92.38
2022-12-23T08:24:10.216Z,92.14
2022-12-23T08:26:36.872Z,92.31
2022-12-23T08:29:03.993Z,92.03
2022-12-23T08:31:32.050Z,92.14
2022-12-23T08:34:00.570Z,92.03
2022-12-23T08:36:30.716Z,92.35
2022-12-23T08:38:59.790Z,92.12
2022-12-23T08:41:29.442Z,92.07
2022-12-23T08:43:56.367Z,92.04
2022-12-23T08:46:23.645Z,92.44
2022-12-23T08:48:50.590Z,92.25
2022-12-23T08:51:19.624Z,92.31
2022-12-23T08:53:48.392Z,92.21
2022-12-23T08:56:17.068Z,92.03
2022-12-23T08:58:45.689Z,92.26
2022-12-23T09:01:15.017Z,92.00
2022-12-23T09:03:42.971Z,92.33
2022-12-23T09:06:12.124Z,92.04
2022-12-23T09:08:39.963Z,91.93
2022-12-23T09:11:10.334Z,91.98
2022-12-23T09:13:37.049Z,92.24
2022-12-23T09:16:04.176Z,92.13
2022-12-23T09:18:31.244Z,92.11
2022-12-23T09:20:58.914Z,92.11
2022-12-23T09:23:25.786Z,92.20
2022-12-23T09:25:52.511Z,91.91
2022-12-23T09:28:20.659Z,92.08
2022-12-23T09:30:47.579Z,92.03
2022-12-23T09:33:14.356Z,92.26
2022-12-23T09:35:41.129Z,92.40
2022-12-23T09:38:08.547Z,92.29
2022-12-23T09:40:37.488Z,92.20
2022-12-23T09:43:16.775Z,92.63
2022-12-23T09:46:00.118Z,92.40
2022-12-23T09:48:33.207Z,92.43
2022-12-23T09:51:00.710Z,92.17
2022-12-23T09:53:40.669Z,92.29
2022-12-23T09:56:16.844Z,92.47
2022-12-23T09:58:49.032Z,92.34
2022-12-23T10:01:24.710Z,92.31
2022-12-23T10:04:16.078Z,92.33
2022-12-23T10:06:48.408Z,92.39
2022-12-23T10:09:17.443Z,92.80
2022-12-23T10:11:47.134Z,92.68
2022-12-23T10:14:18.758Z,92.69
2022-12-23T10:16:49.461Z,92.62
2022-12-23T10:19:21.105Z,92.57
2022-12-23T10:21:48.862Z,92.40
2022-12-23T10:24:21.079Z,92.46
2022-12-23T10:26:52.476Z,92.45
2022-12-23T10:29:22.288Z,92.57
2022-12-23T10:32:03.229Z,92.76
2022-12-23T10:34:41.510Z,92.65
2022-12-23T10:37:15.650Z,92.22
2022-12-23T10:39:50.915Z,92.60
2022-12-23T10:42:23.438Z,92.36
2022-12-23T10:45:19.566Z,92.59
2022-12-23T10:48:00.032Z,92.69
2022-12-23T10:50:46.118Z,92.32
2022-12-23T10:53:17.260Z,92.60
2022-12-23T10:55:44.723Z,92.71
2022-12-23T10:58:16.229Z,92.36
2022-12-23T11:00:46.128Z,92.70
2022-12-23T11:03:18.886Z,92.34
2022-12-23T11:05:48.943Z,92.87
2022-12-23T11:08:15.589Z,92.55
2022-12-23T11:10:42.444Z,92.35
2022-12-23T11:13:09.095Z,92.70
2022-12-23T11:15:38.492Z,92.80
2022-12-23T11:18:17.018Z,92.63
2022-12-23T11:21:00.810Z,92.51
2022-12-23T11:23:29.432Z,92.75
2022-12-23T11:26:01.809Z,92.56
2022-12-23T11:28:30.147Z,92.50
2022-12-23T11:30:58.722Z,92.80
2022-12-23T11:33:27.385Z,92.75
2022-12-23T11:36:04.763Z,92.84
2022-12-23T11:38:31.969Z,92.87
2022-12-23T11:40:58.858Z,92.72
2022-12-23T11:43:27.537Z,92.88
2022-12-23T11:46:24.354Z,92.95
2022-12-23T11:49:04.671Z,92.78
2022-12-23T11:51:37.120Z,92.55
2022-12-23T11:54:04.241Z,92.69
2022-12-23T11:56:36.902Z,92.61
2022-12-23T11:59:07.470Z,92.54
2022-12-23T12:01:35.731Z,92.72
2022-12-23T12:04:07.514Z,92.80
2022-12-23T12:06:34.707Z,92.69
2022-12-23T12:09:06.760Z,92.86
2022-12-23T12:11:38.794Z,92.82
2022-12-23T12:14:07.933Z,93.03
2022-12-23T12:16:53.933Z,92.81
2022-12-23T12:19:25.778Z,92.72
2022-12-23T12:21:58.339Z,93.04
2022-12-23T12:24:32.624Z,92.96
2022-12-23T12:27:03.533Z,92.81
2022-12-23T12:29:37.475Z,92.70
2022-12-23T12:32:10.452Z,93.05
2022-12-23T12:34:44.075Z,93.06
2022-12-23T12:37:20.045Z,92.66
2022-12-23T12:39:53.301Z,92.80
2022-12-23T12:42:27.583Z,92.82
2022-12-23T12:45:02.357Z,92.62
2022-12-23T12:47:53.251Z,92.59
2022-12-23T12:50:27.825Z,92.82
2022-12-23T12:53:00.488Z,93.08
2022-12-23T12:55:32.486Z,92.77
2022-12-23T12:58:02.621Z,92.96
2022-12-23T13:00:41.751Z,92.99
2022-12-23T13:03:27.084Z,93.16
2022-12-23T13:06:07.717Z,92.97
2022-12-23T13:08:54.737Z,92.63
2022-12-23T13:11:29.975Z,93.20
2022-12-23T13:14:04.114Z,93.00
2022-12-23T13:16:40.964Z,92.95
2022-12-23T13:19:21.521Z,92.90
2022-12-23T13:21:51.935Z,93.15
2022-12-23T13:24:27.307Z,93.17
2022-12-23T13:27:05.670Z,93.06
2022-12-23T13:29:43.448Z,93.08
2022-12-23T13:32:21.601Z,93.37
2022-12-23T13:34:59.541Z,93.40
2022-12-23T13:37:35.815Z,93.14
2022-12-23T13:40:16.629Z,93.26
2022-12-23T13:42:52.854Z,93.47
2022-12-23T13:45:21.507Z,93.29
2022-12-23T13:48:05.295Z,93.42
2022-12-23T13:50:36.631Z,93.38
2022-12-23T13:56:09.981Z,93.22
2022-12-23T13:58:40.482Z,93.38
2022-12-23T14:01:31.574Z,93.15
2022-12-23T14:04:32.701Z,93.27
2022-12-23T14:07:01.510Z,93.44
2022-12-23T14:09:32.278Z,93.28
2022-12-23T14:12:11.227Z,93.09
2022-12-23T14:14:51.675Z,93.09
2022-12-23T14:17:26.028Z,93.14
2022-12-23T14:20:04.488Z,93.20
2022-12-23T14:22:45.448Z,93.16
2022-12-23T14:25:37.037Z,93.25
2022-12-23T14:28:18.201Z,93.16
2022-12-23T14:30:46.554Z,93.11
2022-12-23T14:33:23.915Z,93.02
2022-12-23T14:35:57.745Z,93.18
2022-12-23T14:38:30.103Z,93.47
2022-12-23T14:41:23.265Z,93.38
2022-12-23T14:44:18.889Z,93.26
2022-12-23T14:46:56.301Z,93.57
2022-12-23T14:49:39.444Z,93.24
2022-12-23T14:52:53.301Z,93.28
2022-12-23T14:55:42.657Z,93.33
2022-12-23T14:58:37.750Z,93.24
2022-12-23T15:01:10.331Z,93.26
2022-12-23T15:03:44.919Z,93.33
2022-12-23T15:06:16.302Z,93.30
2022-12-23T15:08:43.795Z,93.44
2022-12-23T15:11:21.369Z,93.46
2022-12-23T15:13:50.994Z,93.27
2022-12-23T15:16:18.720Z,93.22
2022-12-23T15:18:58.231Z,93.28
2022-12-23T15:21:29.292Z,93.37
2022-12-23T15:23:56.015Z,93.35
2022-12-23T15:26:27.162Z,93.74
2022-12-23T15:28:55.115Z,93.27
2022-12-23T15:31:27.084Z,93.37
2022-12-23T15:34:03.554Z,93.49
2022-12-23T15:36:36.149Z,93.18
2022-12-23T15:39:09.380Z,93.23
2022-12-23T15:41:42.157Z,93.34
2022-12-23T15:44:12.939Z,93.58
2022-12-23T15:46:40.507Z,93.47
2022-12-23T15:49:14.488Z,93.25
2022-12-23T15:54:36.904Z,93.37
2022-12-23T15:57:04.744Z,93.29
2022-12-23T15:59:34.778Z,93.08
2022-12-23T16:02:24.965Z,93.36
2022-12-23T16:05:00.492Z,92.97
2022-12-23T16:07:36.811Z,93.00
2022-12-23T16:10:12.018Z,93.10
2022-12-23T16:12:40.194Z,92.98
2022-12-23T16:15:20.464Z,93.37
2022-12-23T16:17:47.153Z,93.11
2022-12-23T16:20:21.061Z,93.20
2022-12-23T16:22:50.834Z,93.15
2022-12-23T16:25:22.307Z,93.34
2022-12-23T16:27:54.421Z,93.26
2022-12-23T16:30:24.647Z,93.35
2022-12-23T16:32:54.359Z,93.29
2022-12-23T16:35:33.529Z,93.39
2022-12-23T16:38:11.809Z,93.38
2022-12-23T16:40:38.942Z,93.17
2022-12-23T16:43:05.999Z,93.27
2022-12-23T16:45:34.412Z,93.28
2022-12-23T16:48:02.506Z,93.28
2022-12-23T16:50:30.629Z,93.20
2022-12-23T16:52:57.433Z,93.33
2022-12-23T16:55:24.129Z,93.38
2022-12-23T16:57:50.879Z,92.94
2022-12-23T17:00:19.579Z,93.08
2022-12-23T17:02:47.716Z,93.09
2022-12-23T17:05:19.571Z,92.96
2022-12-23T17:07:48.033Z,92.99
2022-12-23T17:10:17.138Z,92.75
2022-12-23T17:12:45.143Z,92.91
2022-12-23T17:15:16.898Z,92.87
2022-12-23T17:17:43.672Z,92.86
2022-12-23T17:20:10.935Z,93.22
2022-12-23T17:22:38.301Z,92.85
2022-12-23T17:25:06.693Z,93.01
2022-12-23T17:27:33.398Z,92.85
2022-12-23T17:30:02.354Z,92.89
2022-12-23T17:32:29.221Z,93.07
2022-12-23T17:34:56.021Z,92.82
2022-12-23T17:37:24.634Z,93.29
2022-12-23T17:39:51.488Z,93.23
2022-12-23T17:42:25.798Z,92.97
2022-12-23T17:44:53.200Z,93.05
2022-12-23T17:47:22.496Z,93.14
2022-12-23T17:49:49.745Z,93.04
2022-12-23T17:52:18.869Z,93.20
2022-12-23T17:54:46.783Z,93.00
2022-12-23T17:57:19.257Z,93.23
2022-12-23T17:59:48.630Z,93.21
2022-12-23T18:02:24.171Z,93.42
2022-12-23T18:04:51.967Z,93.29
2022-12-23T18:07:19.486Z,93.57
2022-12-23T18:09:46.318Z,93.42
2022-12-23T18:12:25.192Z,93.55
2022-12-23T18:14:53.621Z,93.56
2022-12-23T18:17:20.381Z,93.51
2022-12-23T18:19:47.102Z,93.56
2022-12-23T18:22:20.454Z,93.56
2022-12-23T18:24:52.401Z,93.38
2022-12-23T18:27:23.948Z,93.43
2022-12-23T18:29:50.926Z,93.64
2022-12-23T18:32:25.022Z,93.61
2022-12-23T18:34:53.151Z,93.62
2022-12-23T18:37:20.944Z,93.81
2022-12-23T18:39:47.831Z,93.59
2022-12-23T18:42:16.746Z,93.42
2022-12-23T18:44:44.790Z,93.74
2022-12-23T18:47:11.842Z,93.61
2022-12-23T18:49:40.860Z,93.62
2022-12-23T18:52:14.936Z,93.82
2022-12-23T18:54:41.638Z,93.50
2022-12-23T18:57:10.440Z,93.67
2022-12-23T18:59:38.986Z,93.48
2022-12-23T19:02:05.884Z,93.95
2022-12-23T19:04:32.609Z,94.03
2022-12-23T19:07:01.057Z,93.69
2022-12-23T19:09:28.234Z,94.07
2022-12-23T19:11:55.139Z,94.11
2022-12-23T19:14:22.276Z,93.84
2022-12-23T19:16:52.295Z,93.78
2022-12-23T19:19:19.827Z,94.25
2022-12-23T19:21:46.965Z,93.79
2022-12-23T19:24:15.068Z,93.82
2022-12-23T19:26:41.962Z,94.24
2022-12-23T19:29:08.805Z,94.15
2022-12-23T19:31:35.880Z,94.21
2022-12-23T19:34:02.906Z,93.98
2022-12-23T19:36:30.010Z,94.07
2022-12-23T19:38:58.025Z,93.76
2022-12-23T19:41:26.323Z,93.98
2022-12-23T19:43:53.082Z,93.96
2022-12-23T19:46:19.982Z,94.23
2022-12-23T19:48:50.479Z,93.99
2022-12-23T19:51:17.473Z,94.25
2022-12-23T19:53:46.083Z,93.97
2022-12-23T19:56:15.349Z,93.88
2022-12-23T19:58:44.318Z,94.15
2022-12-23T20:01:18.275Z,93.97
2022-12-23T20:03:46.830Z,94.23
2022-12-23T20:06:16.053Z,94.46
2022-12-23T20:08:43.875Z,94.38
2022-12-23T20:11:12.698Z,94.17
2022-12-23T20:13:40.115Z,94.23
2022-12-23T20:16:09.490Z,94.23
2022-12-23T20:18:37.265Z,94.03
2022-12-23T20:21:04.595Z,94.24
2022-12-23T20:23:32.360Z,94.25
2022-12-23T20:25:59.493Z,94.33
2022-12-23T20:28:26.696Z,94.27
2022-12-23T20:31:00.530Z,94.34
2022-12-23T20:33:28.957Z,94.49
2022-12-23T20:35:55.835Z,94.44
2022-12-23T20:38:23.813Z,94.54
2022-12-23T20:40:50.628Z,94.58
2022-12-23T20:43:18.592Z,94.16
2022-12-23T20:45:46.469Z,94.38
2022-12-23T20:48:13.338Z,94.69
2022-12-23T20:50:41.806Z,94.26
2022-12-23T20:53:09.156Z,94.31
2022-12-23T20:55:36.008Z,94.62
2022-12-23T20:58:23.087Z,94.18
2022-12-23T21:00:50.701Z,94.30
2022-12-23T21:03:17.666Z,94.21
2022-12-23T21:05:46.098Z,94.29
2022-12-23T21:08:13.110Z,94.84
2022-12-23T21:10:39.891Z,94.63
2022-12-23T21:13:06.763Z,94.78
2022-12-23T21:15:33.664Z,94.40
2022-12-23T21:18:00.754Z,94.50
2022-12-23T21:20:27.847Z,94.57
2022-12-23T21:22:55.973Z,94.28
2022-12-23T21:25:23.891Z,94.40
2022-12-23T21:27:50.976Z,94.54
2022-12-23T21:30:17.868Z,94.42
2022-12-23T21:32:44.741Z,94.29
2022-12-23T21:35:11.503Z,94.18
2022-12-23T21:37:38.194Z,94.13
2022-12-23T21:40:07.957Z,94.57
2022-12-23T21:42:34.628Z,94.16
2022-12-23T21:45:01.421Z,94.57
2022-12-23T21:47:28.099Z,94.52
2022-12-23T21:49:54.989Z,94.80
2022-12-23T21:52:21.711Z,94.59
2022-12-23T21:54:48.399Z,94.44
2022-12-23T21:57:16.502Z,94.26
2022-12-23T21:59:43.148Z,94.47
2022-12-23T22:02:15.417Z,94.53
2022-12-23T22:04:42.374Z,94.18
2022-12-23T22:07:09.255Z,94.28
2022-12-23T22:09:35.978Z,94.50
2022-12-23T22:12:05.103Z,94.54
2022-12-23T22:14:33.346Z,94.05
2022-12-23T22:17:00.021Z,94.24
2022-12-23T22:19:26.960Z,94.19
2022-12-23T22:21:53.622Z,94.48
2022-12-23T22:24:20.342Z,94.36
2022-12-23T22:26:47.036Z,94.27
2022-12-23T22:29:13.737Z,94.28
2022-12-23T22:31:44.499Z,94.22
2022-12-23T22:34:14.038Z,94.02
2022-12-23T22:36:40.738Z,93.99
2022-12-23T22:39:08.181Z,93.80
2022-12-23T22:41:35.564Z,93.89
2022-12-23T22:44:02.233Z,94.15
2022-12-23T22:46:29.252Z,93.83
2022-12-23T22:48:58.939Z,93.86
2022-12-23T22:51:28.735Z,93.93
2022-12-23T22:53:55.785Z,93.44
2022-12-23T22:56:23.660Z,93.37
2022-12-23T22:58:52.553Z,93.93
2022-12-23T23:01:22.330Z,93.12
2022-12-23T23:03:56.914Z,93.38
2022-12-23T23:06:26.774Z,93.20
2022-12-23T23:08:54.134Z,93.08
2022-12-23T23:11:21.134Z,93.20
2022-12-23T23:13:47.910Z,93.01
2022-12-23T23:16:14.675Z,92.88
2022-12-23T23:18:41.413Z,92.91
2022-12-23T23:21:09.109Z,92.93
2022-12-23T23:23:37.215Z,93.13
2022-12-23T23:26:04.443Z,92.76
2022-12-23T23:28:31.462Z,92.76
2022-12-23T23:31:32.040Z,92.47
2022-12-23T23:33:46.345Z,92.71
2022-12-23T23:36:13.075Z,92.36
2022-12-23T23:38:41.175Z,92.54
2022-12-23T23:41:07.838Z,92.40
2022-12-23T23:43:34.588Z,92.47
2022-12-23T23:46:01.239Z,92.17
2022-12-23T23:48:27.940Z,92.36
2022-12-23T23:51:02.962Z,92.11
2022-12-23T23:53:29.755Z,92.20
2022-12-23T23:56:02.938Z,92.40
2022-12-23T23:58:29.615Z,92.04
